createdAt,value
2018-02-12T00:02:25.953Z,-1.80
2018-02-12T00:04:52.194Z,-1.80
2018-02-12T00:07:18.615Z,-1.70
2018-02-12T00:09:45.076Z,-1.60
2018-02-12T00:12:11.480Z,-1.60
2018-02-12T00:14:37.909Z,-1.50
2018-02-12T00:17:04.185Z,-1.50
2018-02-12T00:19:31.174Z,-1.40
2018-02-12T00:21:57.503Z,-1.40
2018-02-12T00:24:23.971Z,-1.30
2018-02-12T00:26:50.162Z,-1.30
2018-02-12T00:29:16.656Z,-1.10
2018-02-12T00:31:42.908Z,-1.00
2018-02-12T00:34:09.136Z,-0.90
2018-02-12T00:36:35.514Z,-0.80
2018-02-12T00:39:01.809Z,-0.60
2018-02-12T00:41:28.194Z,-0.50
2018-02-12T00:43:54.453Z,-0.50
2018-02-12T00:46:20.773Z,-0.40
2018-02-12T00:48:47.876Z,-0.30
2018-02-12T00:51:14.715Z,-0.30
2018-02-12T00:53:40.914Z,-0.30
2018-02-12T00:56:07.211Z,-0.30
2018-02-12T00:58:34.171Z,-0.30
2018-02-12T01:01:00.380Z,-0.30
2018-02-12T01:03:27.302Z,-0.40
2018-02-12T01:05:53.742Z,-0.40
2018-02-12T01:08:20.022Z,-0.40
2018-02-12T01:10:46.325Z,-0.20
2018-02-12T01:13:12.606Z,-0.20
2018-02-12T01:15:38.885Z,-0.10
2018-02-12T01:18:05.166Z,-0.10
2018-02-12T01:20:31.603Z,-0.10
2018-02-12T01:22:57.930Z,-0.10
2018-02-12T01:25:25.089Z,-0.10
2018-02-12T01:27:52.329Z,-0.10
2018-02-12T01:30:18.639Z,-0.20
2018-02-12T01:32:44.917Z,-0.20
2018-02-12T01:35:12.121Z,-0.40
2018-02-12T01:37:38.377Z,-0.40
2018-02-12T01:40:04.618Z,-0.50
2018-02-12T01:42:31.614Z,-0.50
2018-02-12T01:44:57.808Z,-0.60
2018-02-12T01:47:24.241Z,-0.60
2018-02-12T01:52:49.514Z,-0.80
2018-02-12T01:55:15.722Z,-0.80
2018-02-12T01:57:42.055Z,-0.80
2018-02-12T02:00:08.333Z,-0.80
2018-02-12T02:02:35.341Z,-0.80
2018-02-12T02:05:02.475Z,-0.80
2018-02-12T02:07:28.702Z,-0.80
2018-02-12T02:09:55.079Z,-0.80
2018-02-12T02:12:22.265Z,-0.90
2018-02-12T02:14:48.821Z,-0.90
2018-02-12T02:17:15.125Z,-0.90
2018-02-12T02:19:41.277Z,-0.80
2018-02-12T02:22:07.597Z,-0.80
2018-02-12T02:24:33.746Z,-0.80
2018-02-12T02:27:00.733Z,-0.80
2018-02-12T02:29:26.953Z,-0.80
2018-02-12T02:31:53.155Z,-0.80
2018-02-12T02:34:20.286Z,-0.70
2018-02-12T02:36:46.491Z,-0.70
2018-02-12T02:39:12.820Z,-0.60
2018-02-12T02:41:39.146Z,-0.60
2018-02-12T02:44:05.374Z,-0.60
2018-02-12T02:46:31.559Z,-0.50
2018-02-12T02:48:57.939Z,-0.40
2018-02-12T02:51:24.313Z,-0.30
2018-02-12T02:53:50.593Z,-0.40
2018-02-12T02:56:16.920Z,-0.40
2018-02-12T02:58:43.284Z,-0.40
2018-02-12T03:01:09.624Z,-0.40
2018-02-12T03:03:36.642Z,-0.40
2018-02-12T03:06:03.060Z,-0.40
2018-02-12T03:08:29.486Z,-0.40
2018-02-12T03:10:55.816Z,-0.40
2018-02-12T03:13:22.118Z,-0.40
2018-02-12T03:15:50.488Z,-0.50
2018-02-12T03:18:16.718Z,-0.50
2018-02-12T03:20:42.979Z,-0.50
2018-02-12T03:23:09.303Z,-0.60
2018-02-12T03:25:35.555Z,-0.70
2018-02-12T03:28:01.742Z,-0.80
2018-02-12T03:30:28.027Z,-0.90
2018-02-12T03:32:55.053Z,-0.80
2018-02-12T03:35:22.811Z,-0.80
2018-02-12T03:37:49.746Z,-0.80
2018-02-12T03:40:16.230Z,-0.80
2018-02-12T03:42:42.466Z,-0.80
2018-02-12T03:45:09.050Z,-0.80
2018-02-12T03:47:36.036Z,-0.70
2018-02-12T03:50:02.721Z,-0.70
2018-02-12T03:52:29.038Z,-0.70
2018-02-12T03:54:55.322Z,-0.70
2018-02-12T03:57:22.766Z,-0.60
2018-02-12T03:59:49.828Z,-0.60
2018-02-12T04:02:16.045Z,-0.60
2018-02-12T04:04:43.017Z,-0.40
2018-02-12T04:07:09.214Z,-0.50
2018-02-12T04:09:36.308Z,-0.30
2018-02-12T04:12:02.628Z,-0.40
2018-02-12T04:14:28.862Z,-0.30
2018-02-12T04:16:55.104Z,-0.20
2018-02-12T04:19:21.366Z,-0.20
2018-02-12T04:21:48.333Z,-0.10
2018-02-12T04:24:14.558Z,-0.10
2018-02-12T04:26:41.184Z,-0.10
2018-02-12T04:29:07.520Z,-0.10
2018-02-12T04:31:34.068Z,0.00
2018-02-12T04:34:00.271Z,0.00
2018-02-12T04:36:27.275Z,0.00
2018-02-12T04:38:55.001Z,0.00
2018-02-12T04:41:21.255Z,0.00
2018-02-12T04:43:47.502Z,0.00
2018-02-12T04:46:14.524Z,0.00
2018-02-12T04:48:40.910Z,0.00
2018-02-12T04:51:07.198Z,0.00
2018-02-12T04:53:34.892Z,0.00
2018-02-12T04:56:02.301Z,-0.10
2018-02-12T04:58:28.641Z,-0.10
2018-02-12T05:00:55.670Z,-0.10
2018-02-12T05:03:22.005Z,-0.10
2018-02-12T05:05:51.477Z,-0.10
2018-02-12T05:08:17.795Z,-0.20
2018-02-12T05:10:44.197Z,-0.30
2018-02-12T05:13:11.304Z,-0.50
2018-02-12T05:15:37.532Z,-0.50
2018-02-12T05:18:03.756Z,-0.60
2018-02-12T05:20:30.033Z,-0.60
2018-02-12T05:22:57.019Z,-0.90
2018-02-12T05:25:23.229Z,-0.90
2018-02-12T05:27:49.500Z,-1.00
2018-02-12T05:30:15.755Z,-1.10
2018-02-12T05:32:43.074Z,-1.20
2018-02-12T05:35:09.342Z,-1.20
2018-02-12T05:37:36.520Z,-1.00
2018-02-12T05:40:02.816Z,-1.00
2018-02-12T05:42:30.066Z,-0.80
2018-02-12T05:44:56.981Z,-0.80
2018-02-12T05:47:24.674Z,-0.70
2018-02-12T05:49:51.883Z,-0.70
2018-02-12T05:52:18.202Z,-0.70
2018-02-12T05:54:44.434Z,-0.60
2018-02-12T05:57:10.766Z,-0.60
2018-02-12T05:59:37.006Z,-0.60
2018-02-12T06:02:04.673Z,-0.60
2018-02-12T06:04:31.901Z,-0.50
2018-02-12T06:06:58.077Z,-0.50
2018-02-12T06:09:25.431Z,-0.60
2018-02-12T06:11:51.631Z,-0.60
2018-02-12T06:14:18.590Z,-0.50
2018-02-12T06:16:44.962Z,-0.60
2018-02-12T06:19:11.156Z,-0.50
2018-02-12T06:21:38.031Z,-0.60
2018-02-12T06:24:04.322Z,-0.60
2018-02-12T06:26:31.326Z,-0.60
2018-02-12T06:28:57.711Z,-0.70
2018-02-12T06:31:24.052Z,-0.70
2018-02-12T06:33:50.512Z,-0.70
2018-02-12T06:36:16.814Z,-0.70
2018-02-12T06:38:43.059Z,-0.70
2018-02-12T06:41:09.354Z,-0.80
2018-02-12T06:43:36.511Z,-0.90
2018-02-12T06:46:02.838Z,-0.80
2018-02-12T06:48:29.311Z,-0.80
2018-02-12T06:50:56.883Z,-0.90
2018-02-12T06:53:23.297Z,-0.90
2018-02-12T06:55:49.679Z,-0.90
2018-02-12T06:58:15.973Z,-0.80
2018-02-12T07:00:43.043Z,-0.70
2018-02-12T07:03:10.158Z,-0.60
2018-02-12T07:05:43.303Z,-0.60
2018-02-12T07:08:09.606Z,-0.60
2018-02-12T07:10:36.755Z,-0.50
2018-02-12T07:13:04.090Z,-0.60
2018-02-12T07:15:31.161Z,-0.50
2018-02-12T07:17:57.550Z,-0.60
2018-02-12T07:20:23.810Z,-0.50
2018-02-12T07:22:50.836Z,-0.40
2018-02-12T07:25:17.302Z,-0.40
2018-02-12T07:27:43.767Z,-0.30
2018-02-12T07:30:10.091Z,-0.20
2018-02-12T07:32:36.392Z,0.00
2018-02-12T07:35:02.738Z,0.20
2018-02-12T07:37:28.973Z,0.30
2018-02-12T07:39:55.293Z,0.50
2018-02-12T07:42:22.472Z,0.70
2018-02-12T07:44:48.848Z,0.90
2018-02-12T07:47:15.122Z,0.90
2018-02-12T07:49:41.343Z,0.90
2018-02-12T07:52:07.581Z,0.80
2018-02-12T07:54:33.809Z,0.80
2018-02-12T07:57:00.165Z,0.70
2018-02-12T07:59:27.453Z,0.50
2018-02-12T08:01:53.789Z,0.50
2018-02-12T08:04:20.166Z,0.50
2018-02-12T08:06:47.106Z,0.50
2018-02-12T08:09:13.317Z,0.50
2018-02-12T08:11:39.613Z,0.50
2018-02-12T08:14:05.890Z,0.50
2018-02-12T08:16:33.240Z,0.50
2018-02-12T08:18:59.527Z,0.50
2018-02-12T08:21:25.945Z,0.50
2018-02-12T08:23:52.304Z,0.50
2018-02-12T08:26:18.601Z,0.50
2018-02-12T08:28:44.804Z,0.50
2018-02-12T08:31:11.778Z,0.50
2018-02-12T08:33:38.190Z,0.50
2018-02-12T08:36:05.223Z,0.50
2018-02-12T08:38:32.214Z,0.60
2018-02-12T08:40:58.667Z,0.50
2018-02-12T08:43:24.902Z,0.60
2018-02-12T08:45:52.244Z,0.60
2018-02-12T08:48:18.589Z,0.60
2018-02-12T08:50:46.731Z,0.80
2018-02-12T08:53:13.313Z,0.80
2018-02-12T08:55:40.655Z,1.00
2018-02-12T08:58:07.021Z,0.90
2018-02-12T09:00:33.307Z,1.00
2018-02-12T09:02:59.634Z,1.20
2018-02-12T09:05:26.037Z,1.30
2018-02-12T09:07:52.433Z,1.50
2018-02-12T09:10:18.663Z,1.70
2018-02-12T09:12:44.877Z,2.10
2018-02-12T09:15:12.353Z,2.80
2018-02-12T09:17:38.573Z,2.80
2018-02-12T09:20:05.141Z,3.00
2018-02-12T09:22:31.562Z,3.00
2018-02-12T09:24:57.836Z,3.10
2018-02-12T09:27:24.083Z,3.10
2018-02-12T09:29:51.912Z,2.90
2018-02-12T09:32:18.950Z,2.90
2018-02-12T09:34:45.482Z,2.90
2018-02-12T09:37:11.657Z,2.90
2018-02-12T09:39:38.640Z,2.70
2018-02-12T09:42:04.985Z,2.70
2018-02-12T09:44:31.152Z,2.60
2018-02-12T09:46:58.216Z,2.50
2018-02-12T09:49:24.438Z,2.50
2018-02-12T09:51:51.065Z,2.40
2018-02-12T09:54:18.094Z,2.40
2018-02-12T09:56:45.074Z,2.30
2018-02-12T09:59:11.315Z,2.30
2018-02-12T10:01:44.622Z,2.30
2018-02-12T10:04:10.913Z,2.40
2018-02-12T10:06:37.692Z,2.40
2018-02-12T10:09:04.326Z,2.30
2018-02-12T10:11:30.689Z,2.30
2018-02-12T10:13:57.906Z,2.20
2018-02-12T10:16:24.174Z,2.20
2018-02-12T10:18:51.227Z,2.10
2018-02-12T10:21:18.222Z,2.00
2018-02-12T10:23:44.551Z,2.00
2018-02-12T10:26:10.895Z,2.00
2018-02-12T10:28:37.811Z,2.20
2018-02-12T10:31:04.713Z,2.10
2018-02-12T10:33:30.924Z,2.30
2018-02-12T10:35:57.176Z,2.50
2018-02-12T10:38:23.655Z,2.60
2018-02-12T10:40:50.008Z,2.70
2018-02-12T10:43:17.930Z,2.70
2018-02-12T10:45:44.436Z,2.70
2018-02-12T10:48:10.754Z,2.70
2018-02-12T10:50:37.716Z,2.80
2018-02-12T10:53:04.478Z,2.70
2018-02-12T10:55:31.177Z,2.90
2018-02-12T10:57:57.612Z,2.90
2018-02-12T11:00:24.780Z,2.70
2018-02-12T11:02:51.155Z,2.60
2018-02-12T11:05:17.623Z,2.60
2018-02-12T11:07:43.904Z,2.60
2018-02-12T11:10:10.171Z,2.60
2018-02-12T11:12:37.234Z,2.50
2018-02-12T11:15:03.655Z,2.50
2018-02-12T11:17:29.860Z,2.50
2018-02-12T11:19:56.964Z,2.60
2018-02-12T11:22:23.422Z,2.50
2018-02-12T11:24:49.720Z,2.80
2018-02-12T11:27:15.954Z,2.90
2018-02-12T11:29:42.309Z,3.10
2018-02-12T11:32:08.522Z,3.30
2018-02-12T11:34:34.913Z,3.30
2018-02-12T11:37:01.120Z,3.20
2018-02-12T11:39:28.224Z,3.10
2018-02-12T11:41:54.453Z,3.10
2018-02-12T11:44:20.789Z,3.20
2018-02-12T11:46:47.120Z,3.40
2018-02-12T11:49:13.776Z,3.30
2018-02-12T11:51:40.022Z,3.30
2018-02-12T11:54:07.126Z,3.30
2018-02-12T11:56:34.334Z,3.30
2018-02-12T11:59:00.689Z,3.30
2018-02-12T12:01:26.895Z,3.50
2018-02-12T12:03:53.505Z,3.70
2018-02-12T12:06:20.556Z,3.50
2018-02-12T12:08:47.526Z,3.30
2018-02-12T12:11:13.847Z,3.30
2018-02-12T12:13:40.012Z,3.20
2018-02-12T12:16:06.345Z,3.20
2018-02-12T12:18:32.473Z,3.20
2018-02-12T12:20:58.800Z,3.20
2018-02-12T12:23:24.999Z,3.20
2018-02-12T12:25:51.349Z,3.20
2018-02-12T12:28:17.678Z,3.00
2018-02-12T12:30:44.186Z,2.90
2018-02-12T12:33:10.747Z,2.90
2018-02-12T12:35:37.184Z,2.80
2018-02-12T12:38:03.513Z,2.80
2018-02-12T12:40:29.771Z,2.80
2018-02-12T12:42:56.873Z,2.90
2018-02-12T12:45:23.231Z,2.90
2018-02-12T12:47:51.074Z,2.90
2018-02-12T12:50:17.416Z,2.90
2018-02-12T12:52:43.610Z,2.90
2018-02-12T12:55:09.977Z,2.90
2018-02-12T12:57:37.742Z,2.90
2018-02-12T13:00:04.869Z,2.80
2018-02-12T13:02:31.062Z,2.80
2018-02-12T13:04:57.366Z,2.80
2018-02-12T13:07:24.379Z,2.60
2018-02-12T13:09:51.335Z,2.60
2018-02-12T13:12:19.045Z,2.60
2018-02-12T13:14:45.745Z,2.50
2018-02-12T13:17:13.113Z,2.60
2018-02-12T13:19:39.469Z,2.60
2018-02-12T13:22:05.825Z,2.70
2018-02-12T13:24:32.204Z,2.70
2018-02-12T13:26:59.280Z,3.00
2018-02-12T13:29:25.740Z,3.00
2018-02-12T13:31:52.724Z,3.20
2018-02-12T13:34:19.662Z,3.40
2018-02-12T13:36:46.777Z,3.50
2018-02-12T13:39:12.948Z,3.40
2018-02-12T13:41:39.274Z,3.50
2018-02-12T13:44:05.674Z,3.50
2018-02-12T13:46:31.893Z,3.40
2018-02-12T13:48:58.287Z,3.30
2018-02-12T13:51:24.684Z,3.20
2018-02-12T13:53:51.936Z,3.10
2018-02-12T13:56:18.965Z,3.20
2018-02-12T13:58:45.624Z,3.20
2018-02-12T14:01:12.114Z,3.40
2018-02-12T14:03:38.586Z,3.40
2018-02-12T14:06:06.485Z,3.50
2018-02-12T14:08:32.750Z,3.50
2018-02-12T14:10:59.753Z,3.40
2018-02-12T14:13:27.250Z,3.40
2018-02-12T14:15:53.563Z,3.30
2018-02-12T14:18:19.729Z,3.30
2018-02-12T14:20:46.841Z,3.10
2018-02-12T14:23:12.997Z,3.10
2018-02-12T14:25:40.834Z,3.10
2018-02-12T14:28:07.180Z,3.10
2018-02-12T14:30:34.142Z,3.10
2018-02-12T14:33:01.171Z,3.00
2018-02-12T14:35:27.547Z,3.00
2018-02-12T14:37:53.747Z,2.90
2018-02-12T14:40:20.243Z,2.80
2018-02-12T14:42:46.486Z,2.80
2018-02-12T14:45:13.611Z,2.70
2018-02-12T14:47:40.048Z,2.70
2018-02-12T14:50:06.343Z,2.70
2018-02-12T14:52:32.853Z,2.60
2018-02-12T14:55:00.019Z,2.30
2018-02-12T14:57:26.410Z,2.30
2018-02-12T14:59:53.500Z,2.20
2018-02-12T15:02:20.855Z,2.20
2018-02-12T15:04:47.138Z,2.00
2018-02-12T15:07:13.382Z,1.80
2018-02-12T15:09:40.607Z,1.00
2018-02-12T15:12:07.622Z,0.70
2018-02-12T15:14:34.092Z,0.70
2018-02-12T15:17:00.612Z,0.40
2018-02-12T15:19:28.486Z,0.10
2018-02-12T15:21:54.689Z,0.10
2018-02-12T15:24:21.117Z,0.10
2018-02-12T15:26:47.427Z,0.10
2018-02-12T15:29:13.808Z,0.10
2018-02-12T15:31:40.436Z,0.20
2018-02-12T15:34:08.382Z,0.10
2018-02-12T15:36:34.765Z,0.20
2018-02-12T15:39:01.071Z,0.10
2018-02-12T15:41:27.349Z,0.10
2018-02-12T15:43:53.637Z,0.00
2018-02-12T15:46:20.848Z,0.00
2018-02-12T15:48:47.255Z,0.00
2018-02-12T15:51:13.459Z,-0.10
2018-02-12T15:53:39.773Z,-0.10
2018-02-12T15:56:06.958Z,-0.20
2018-02-12T15:58:33.210Z,-0.30
2018-02-12T16:00:59.507Z,-0.30
2018-02-12T16:03:25.825Z,-0.30
2018-02-12T16:05:52.194Z,-0.30
2018-02-12T16:08:18.564Z,-0.40
2018-02-12T16:10:45.824Z,-0.40
2018-02-12T16:13:12.742Z,-0.40
2018-02-12T16:15:39.111Z,-0.40
2018-02-12T16:18:05.384Z,-0.50
2018-02-12T16:20:31.664Z,-0.50
2018-02-12T16:22:57.948Z,-0.60
2018-02-12T16:25:24.238Z,-0.70
2018-02-12T16:27:50.478Z,-0.80
2018-02-12T16:30:16.721Z,-0.90
2018-02-12T16:32:43.159Z,-1.00
2018-02-12T16:35:09.430Z,-1.00
2018-02-12T16:37:35.649Z,-1.10
2018-02-12T16:40:02.821Z,-1.40
2018-02-12T16:42:29.328Z,-1.40
2018-02-12T16:44:55.729Z,-1.50
2018-02-12T16:47:22.803Z,-1.80
2018-02-12T16:49:50.004Z,-1.90
2018-02-12T16:52:16.497Z,-1.90
2018-02-12T16:54:42.790Z,-2.00
2018-02-12T16:57:09.077Z,-2.00
2018-02-12T16:59:35.389Z,-2.10
2018-02-12T17:02:01.632Z,-2.20
2018-02-12T17:04:27.880Z,-2.20
2018-02-12T17:06:54.162Z,-2.20
2018-02-12T17:09:20.446Z,-2.20
2018-02-12T17:11:46.791Z,-2.30
2018-02-12T17:14:13.331Z,-2.30
2018-02-12T17:16:40.365Z,-2.50
2018-02-12T17:19:08.291Z,-2.50
2018-02-12T17:21:34.608Z,-2.60
2018-02-12T17:24:01.093Z,-2.60
2018-02-12T17:26:27.504Z,-2.60
2018-02-12T17:28:53.804Z,-2.70
2018-02-12T17:31:20.205Z,-2.70
2018-02-12T17:33:47.453Z,-2.80
2018-02-12T17:36:14.403Z,-2.80
2018-02-12T17:38:41.465Z,-2.80
2018-02-12T17:41:07.912Z,-2.90
2018-02-12T17:43:34.169Z,-2.90
2018-02-12T17:46:00.553Z,-2.90
2018-02-12T17:48:26.798Z,-2.90
2018-02-12T17:50:53.008Z,-3.00
2018-02-12T17:53:19.550Z,-3.10
2018-02-12T17:55:45.860Z,-3.20
2018-02-12T17:58:12.855Z,-3.40
2018-02-12T18:00:39.176Z,-3.40
2018-02-12T18:03:05.590Z,-3.50
2018-02-12T18:05:31.941Z,-3.40
2018-02-12T18:07:58.271Z,-3.50
2018-02-12T18:10:25.626Z,-3.60
2018-02-12T18:12:51.941Z,-3.70
2018-02-12T18:15:19.010Z,-3.80
2018-02-12T18:17:45.333Z,-3.90
2018-02-12T18:20:11.520Z,-4.00
2018-02-12T18:22:37.779Z,-4.00
2018-02-12T18:25:04.029Z,-3.90
2018-02-12T18:27:30.452Z,-4.00
2018-02-12T18:29:57.692Z,-4.30
2018-02-12T18:32:24.028Z,-4.30
2018-02-12T18:34:50.359Z,-4.40
2018-02-12T18:37:17.390Z,-4.60
2018-02-12T18:39:43.676Z,-4.60
2018-02-12T18:42:10.037Z,-4.70
2018-02-12T18:44:36.384Z,-4.80
2018-02-12T18:47:03.201Z,-4.80
2018-02-12T18:49:29.633Z,-4.90
2018-02-12T18:51:55.903Z,-4.90
2018-02-12T18:54:22.275Z,-4.90
2018-02-12T18:56:48.759Z,-4.90
2018-02-12T18:59:15.321Z,-4.80
2018-02-12T19:01:41.735Z,-4.80
2018-02-12T19:04:08.245Z,-4.90
2018-02-12T19:06:34.577Z,-4.90
2018-02-12T19:09:01.106Z,-4.90
2018-02-12T19:11:27.538Z,-5.00
2018-02-12T19:13:54.726Z,-4.90
2018-02-12T19:16:22.284Z,-5.00
2018-02-12T19:18:49.816Z,-5.00
2018-02-12T19:21:16.058Z,-5.00
2018-02-12T19:23:42.488Z,-5.00
2018-02-12T19:26:09.657Z,-5.20
2018-02-12T19:28:35.991Z,-5.20
2018-02-12T19:31:02.295Z,-5.30
2018-02-12T19:33:29.293Z,-5.50
2018-02-12T19:35:55.540Z,-5.50
2018-02-12T19:38:21.812Z,-5.50
2018-02-12T19:40:48.329Z,-5.60
2018-02-12T19:43:15.407Z,-5.60
2018-02-12T19:45:41.743Z,-5.60
2018-02-12T19:48:09.147Z,-5.60
2018-02-12T19:50:36.211Z,-5.60
2018-02-12T19:53:03.425Z,-5.60
2018-02-12T19:55:29.656Z,-5.70
2018-02-12T19:57:55.936Z,-5.70
2018-02-12T20:00:22.247Z,-5.70
2018-02-12T20:02:49.280Z,-5.60
2018-02-12T20:05:16.454Z,-5.60
2018-02-12T20:07:42.760Z,-5.60
2018-02-12T20:10:09.717Z,-5.70
2018-02-12T20:12:36.762Z,-5.80
2018-02-12T20:15:03.807Z,-5.80
2018-02-12T20:17:30.847Z,-5.70
2018-02-12T20:19:58.890Z,-5.80
2018-02-12T20:22:25.084Z,-5.80
2018-02-12T20:24:51.388Z,-5.80
2018-02-12T20:27:17.788Z,-5.90
2018-02-12T20:29:45.676Z,-5.90
2018-02-12T20:32:12.848Z,-5.80
2018-02-12T20:34:39.213Z,-5.80
2018-02-12T20:37:05.591Z,-5.70
2018-02-12T20:39:31.994Z,-5.80
2018-02-12T20:41:58.997Z,-5.90
2018-02-12T20:44:25.287Z,-5.90
2018-02-12T20:46:53.044Z,-6.00
2018-02-12T20:49:20.163Z,-6.10
2018-02-12T20:51:46.602Z,-6.10
2018-02-12T20:54:13.129Z,-6.10
2018-02-12T20:56:39.446Z,-6.20
2018-02-12T20:59:05.851Z,-6.20
2018-02-12T21:01:32.087Z,-6.20
2018-02-12T21:03:58.324Z,-6.20
2018-02-12T21:06:24.780Z,-6.20
2018-02-12T21:08:51.153Z,-6.10
2018-02-12T21:11:17.626Z,-6.20
2018-02-12T21:13:44.223Z,-6.20
2018-02-12T21:16:10.668Z,-6.20
2018-02-12T21:18:37.518Z,-6.20
2018-02-12T21:21:04.270Z,-6.30
2018-02-12T21:23:30.714Z,-6.30
2018-02-12T21:25:57.033Z,-6.30
2018-02-12T21:28:23.367Z,-6.40
2018-02-12T21:30:49.742Z,-6.40
2018-02-12T21:33:17.041Z,-6.40
2018-02-12T21:35:43.205Z,-6.50
2018-02-12T21:38:10.285Z,-6.50
2018-02-12T21:40:37.068Z,-6.50
2018-02-12T21:43:03.285Z,-6.50
2018-02-12T21:45:29.485Z,-6.50
2018-02-12T21:47:55.851Z,-6.50
2018-02-12T21:50:23.810Z,-6.40
2018-02-12T21:52:50.178Z,-6.40
2018-02-12T21:55:17.360Z,-6.30
2018-02-12T21:57:43.713Z,-6.40
2018-02-12T22:00:10.034Z,-6.30
2018-02-12T22:02:36.229Z,-6.20
2018-02-12T22:05:02.520Z,-6.10
2018-02-12T22:07:29.668Z,-5.90
2018-02-12T22:09:57.510Z,-5.60
2018-02-12T22:12:23.766Z,-5.60
2018-02-12T22:14:50.757Z,-5.30
2018-02-12T22:17:17.057Z,-5.30
2018-02-12T22:19:43.364Z,-5.10
2018-02-12T22:22:09.595Z,-5.00
2018-02-12T22:24:36.711Z,-4.70
2018-02-12T22:27:03.154Z,-4.70
2018-02-12T22:29:29.494Z,-4.40
2018-02-12T22:31:55.816Z,-4.30
2018-02-12T22:34:22.065Z,-4.30
2018-02-12T22:36:49.046Z,-4.20
2018-02-12T22:39:15.202Z,-4.20
2018-02-12T22:41:41.562Z,-4.20
2018-02-12T22:44:08.561Z,-4.20
2018-02-12T22:46:34.815Z,-4.20
2018-02-12T22:49:01.229Z,-4.20
2018-02-12T22:51:27.985Z,-4.20
2018-02-12T22:53:54.708Z,-4.20
2018-02-12T22:56:21.146Z,-4.20
2018-02-12T22:58:47.445Z,-4.20
2018-02-12T23:01:13.855Z,-4.30
2018-02-12T23:03:40.546Z,-4.30
2018-02-12T23:06:06.814Z,-4.40
2018-02-12T23:08:33.002Z,-4.40
2018-02-12T23:10:59.297Z,-4.40
2018-02-12T23:13:25.492Z,-4.50
2018-02-12T23:15:52.852Z,-4.50
2018-02-12T23:18:19.047Z,-4.50
2018-02-12T23:20:46.166Z,-4.50
2018-02-12T23:23:12.467Z,-4.50
2018-02-12T23:25:38.805Z,-4.50
2018-02-12T23:28:05.066Z,-4.50
2018-02-12T23:30:31.318Z,-4.50
2018-02-12T23:32:58.457Z,-4.50
2018-02-12T23:35:25.466Z,-4.50
2018-02-12T23:37:51.776Z,-4.50
2018-02-12T23:40:18.071Z,-4.40
2018-02-12T23:42:45.169Z,-4.50
2018-02-12T23:45:11.580Z,-4.50
2018-02-12T23:47:37.855Z,-4.50
2018-02-12T23:50:04.819Z,-4.40
2018-02-12T23:52:31.859Z,-4.40
2018-02-12T23:54:58.992Z,-4.30
2018-02-12T23:57:26.812Z,-4.30
2018-02-12T23:59:53.275Z,-4.30
